Lance Creek, Wyoming
Current Conditions -  °F | °C
As of 12:53 AM on Tuesday 21 Oct 2014 (Local Time) from KDGW Reporting Station
Clear Clear  
Wind Chill: 44°   Ceiling: Unl
Heat Index: 44°   Visibility: 10mi
Dew Point: 33°   Wind: 0mph
Humidity: 65%   Direction: NA
Pressure: 29.99"   Gusts: NA
Location:  43.03°N, 104.64°W
Report Text: KDGW 210653Z AUTO 00000KT 10SM CLR 07/01 A2999 RMK AO2 SLP114 T00670006 402611006
Loading
Personal Weather Stations






























Interactive Weather Map
Tropical Storm Tracking
New forecast layout! Learn more

10-Day Weather Forecast

Advertisements
Track Severe Weather on mobile